createdAt,value
2018-04-01T00:01:23.774Z,38.50
2018-04-01T00:04:29.918Z,39.30
2018-04-01T00:07:32.946Z,38.40
2018-04-01T00:10:35.931Z,38.80
2018-04-01T00:13:39.004Z,39.10
2018-04-01T00:16:42.014Z,39.40
2018-04-01T00:19:45.111Z,39.40
2018-04-01T00:22:48.126Z,40.40
2018-04-01T00:25:51.108Z,40.50
2018-04-01T00:28:54.894Z,40.90
2018-04-01T00:31:57.901Z,40.90
2018-04-01T00:35:00.974Z,40.70
2018-04-01T00:38:03.993Z,41.30
2018-04-01T00:41:07.040Z,41.10
2018-04-01T00:44:10.828Z,41.30
2018-04-01T00:47:13.855Z,41.20
2018-04-01T00:50:16.872Z,41.10
2018-04-01T00:53:19.878Z,40.80
2018-04-01T00:56:22.879Z,41.10
2018-04-01T00:59:25.905Z,40.60
2018-04-01T01:02:28.933Z,40.50
2018-04-01T01:05:32.712Z,40.60
2018-04-01T01:08:35.720Z,40.60
2018-04-01T01:11:38.722Z,40.60
2018-04-01T01:14:41.782Z,40.60
2018-04-01T01:17:44.759Z,40.60
2018-04-01T01:20:47.766Z,40.60
2018-04-01T01:23:50.771Z,40.60
2018-04-01T01:26:53.758Z,40.60
2018-04-01T01:29:56.793Z,41.30
2018-04-01T01:33:00.564Z,40.70
2018-04-01T01:36:03.590Z,40.80
2018-04-01T01:39:06.600Z,41.10
2018-04-01T01:42:09.585Z,41.10
2018-04-01T01:45:12.596Z,41.10
2018-04-01T01:48:15.656Z,41.30
2018-04-01T01:51:18.654Z,41.50
2018-04-01T01:54:22.434Z,41.70
2018-04-01T01:57:25.435Z,41.60
2018-04-01T02:00:28.443Z,42.10
2018-04-01T02:03:31.427Z,41.80
2018-04-01T02:06:34.437Z,41.90
2018-04-01T02:09:37.451Z,42.10
2018-04-01T02:12:40.438Z,41.90
2018-04-01T02:15:43.456Z,42.30
2018-04-01T02:18:46.451Z,42.50
2018-04-01T02:21:49.468Z,42.10
2018-04-01T02:24:52.471Z,42.60
2018-04-01T02:27:55.461Z,42.60
2018-04-01T02:30:58.461Z,42.60
2018-04-01T02:34:01.476Z,42.70
2018-04-01T02:37:04.498Z,42.80
2018-04-01T02:40:07.595Z,42.10
2018-04-01T02:43:10.681Z,42.20
2018-04-01T02:46:13.699Z,42.30
2018-04-01T02:49:16.705Z,42.00
2018-04-01T02:52:19.722Z,42.00
2018-04-01T02:55:22.795Z,42.40
2018-04-01T02:58:25.785Z,42.90
2018-04-01T03:01:29.559Z,42.50
2018-04-01T03:04:32.599Z,42.40
2018-04-01T03:07:35.588Z,43.50
2018-04-01T03:10:38.635Z,43.10
2018-04-01T03:13:42.382Z,42.60
2018-04-01T03:16:45.390Z,42.60
2018-04-01T03:19:48.371Z,42.90
2018-04-01T03:22:52.138Z,42.70
2018-04-01T03:25:55.134Z,42.70
2018-04-01T03:28:58.136Z,42.60
2018-04-01T03:32:01.140Z,42.70
2018-04-01T03:35:04.139Z,43.40
2018-04-01T03:38:07.162Z,44.10
2018-04-01T03:41:10.171Z,43.70
2018-04-01T03:44:13.159Z,43.00
2018-04-01T03:47:16.159Z,43.00
2018-04-01T03:50:19.156Z,43.00
2018-04-01T03:53:22.154Z,43.00
2018-04-01T03:56:25.164Z,43.00
2018-04-01T03:59:28.149Z,43.00
2018-04-01T04:02:31.916Z,43.40
2018-04-01T04:05:34.921Z,43.30
2018-04-01T04:08:37.946Z,44.40
2018-04-01T04:11:40.942Z,44.60
2018-04-01T04:14:43.918Z,44.50
2018-04-01T04:17:46.926Z,44.70
2018-04-01T04:20:49.904Z,44.60
2018-04-01T04:23:53.671Z,44.90
2018-04-01T04:26:56.673Z,44.80
2018-04-01T04:29:59.651Z,45.40
2018-04-01T04:33:02.650Z,44.50
2018-04-01T04:36:05.658Z,44.50
2018-04-01T04:39:09.428Z,44.60
2018-04-01T04:42:12.423Z,44.50
2018-04-01T04:45:15.406Z,44.60
2018-04-01T04:48:18.406Z,44.40
2018-04-01T04:51:21.402Z,45.40
2018-04-01T04:54:25.168Z,44.40
2018-04-01T04:57:28.168Z,44.30
2018-04-01T05:00:31.148Z,44.30
2018-04-01T05:03:34.153Z,45.10
2018-04-01T05:06:37.136Z,44.60
2018-04-01T05:09:40.907Z,44.50
2018-04-01T05:12:43.904Z,44.50
2018-04-01T05:15:46.886Z,44.90
2018-04-01T05:18:49.892Z,44.70
2018-04-01T05:21:52.878Z,45.00
2018-04-01T05:24:56.642Z,45.40
2018-04-01T05:27:59.652Z,45.90
2018-04-01T05:31:02.633Z,44.60
2018-04-01T05:34:05.637Z,45.10
2018-04-01T05:37:08.619Z,45.30
2018-04-01T05:40:12.382Z,45.10
2018-04-01T05:43:15.387Z,45.00
2018-04-01T05:46:18.366Z,45.40
2018-04-01T05:49:21.363Z,46.20
2018-04-01T05:52:25.119Z,45.40
2018-04-01T05:55:28.113Z,45.40
2018-04-01T05:58:31.142Z,45.80
2018-04-01T06:01:34.158Z,46.10
2018-04-01T06:04:37.182Z,45.90
2018-04-01T06:07:40.159Z,46.10
2018-04-01T06:10:43.164Z,45.80
2018-04-01T06:13:46.152Z,45.70
2018-04-01T06:16:49.171Z,45.60
2018-04-01T06:19:52.191Z,46.10
2018-04-01T06:22:55.182Z,46.90
2018-04-01T06:25:58.180Z,46.60
2018-04-01T06:29:01.158Z,46.60
2018-04-01T06:32:04.214Z,47.20
2018-04-01T06:35:07.218Z,46.40
2018-04-01T06:38:10.212Z,46.60
2018-04-01T06:41:13.226Z,46.80
2018-04-01T06:44:16.217Z,46.20
2018-04-01T06:47:19.226Z,46.20
2018-04-01T06:50:22.234Z,46.40
2018-04-01T06:53:25.211Z,46.90
2018-04-01T06:56:28.210Z,46.50
2018-04-01T06:59:31.192Z,47.00
2018-04-01T07:02:35.035Z,47.00
2018-04-01T07:05:38.038Z,46.90
2018-04-01T07:08:41.015Z,47.40
2018-04-01T07:11:44.010Z,47.90
2018-04-01T07:14:46.991Z,47.00
2018-04-01T07:17:49.999Z,47.00
2018-04-01T07:20:53.005Z,46.00
2018-04-01T07:23:55.991Z,45.80
2018-04-01T07:26:58.997Z,45.60
2018-04-01T07:30:01.974Z,45.50
2018-04-01T07:33:04.973Z,45.50
2018-04-01T07:36:08.751Z,45.70
2018-04-01T07:39:11.737Z,45.60
2018-04-01T07:42:14.742Z,45.80
2018-04-01T07:45:17.723Z,45.80
2018-04-01T07:48:20.724Z,45.90
2018-04-01T07:51:23.720Z,45.90
2018-04-01T07:54:26.698Z,46.00
2018-04-01T07:57:29.703Z,46.00
2018-04-01T08:00:32.683Z,46.30
2018-04-01T08:03:35.685Z,46.50
2018-04-01T08:06:38.684Z,47.30
2018-04-01T08:09:41.670Z,47.40
2018-04-01T08:12:44.674Z,47.10
2018-04-01T08:15:47.655Z,47.00
2018-04-01T08:18:51.421Z,46.50
2018-04-01T08:21:54.442Z,46.50
2018-04-01T08:24:57.430Z,46.30
2018-04-01T08:28:00.499Z,46.20
2018-04-01T08:31:03.491Z,46.10
2018-04-01T08:34:07.268Z,46.10
2018-04-01T08:37:10.278Z,46.00
2018-04-01T08:40:13.270Z,46.00
2018-04-01T08:43:16.270Z,46.20
2018-04-01T08:46:19.253Z,48.00
2018-04-01T08:49:22.259Z,47.80
2018-04-01T08:52:25.258Z,47.50
2018-04-01T08:55:28.260Z,47.40
2018-04-01T08:58:31.263Z,47.50
2018-04-01T09:01:35.016Z,47.40
2018-04-01T09:04:38.014Z,47.40
2018-04-01T09:07:41.019Z,47.40
2018-04-01T09:10:44.001Z,46.90
2018-04-01T09:13:47.768Z,47.20
2018-04-01T09:16:50.747Z,47.10
2018-04-01T09:19:53.747Z,46.80
2018-04-01T09:22:56.723Z,46.80
2018-04-01T09:26:00.495Z,47.40
2018-04-01T09:29:03.513Z,47.30
2018-04-01T09:32:06.508Z,47.30
2018-04-01T09:35:09.534Z,46.90
2018-04-01T09:38:12.516Z,46.70
2018-04-01T09:41:15.520Z,46.70
2018-04-01T09:44:18.558Z,46.80
2018-04-01T09:47:21.536Z,47.10
2018-04-01T09:50:24.536Z,47.20
2018-04-01T09:53:27.515Z,42.40
2018-04-01T09:56:30.509Z,38.40
2018-04-01T09:59:34.289Z,38.20
2018-04-01T10:02:38.023Z,38.10
2018-04-01T10:05:43.282Z,36.80
2018-04-01T10:08:47.078Z,36.80
2018-04-01T10:11:51.572Z,37.40
2018-04-01T10:14:56.098Z,38.20
2018-04-01T10:17:59.852Z,38.20
2018-04-01T10:21:03.611Z,37.00
2018-04-01T10:24:07.364Z,37.00
2018-04-01T10:27:11.135Z,36.80
2018-04-01T10:30:14.894Z,34.90
2018-04-01T10:33:18.681Z,34.80
2018-04-01T10:36:22.433Z,36.40
2018-04-01T10:39:26.198Z,35.10
2018-04-01T10:42:30.764Z,35.00
2018-04-01T10:45:34.548Z,35.00
2018-04-01T10:48:38.292Z,35.00
2018-04-01T10:51:42.118Z,33.10
2018-04-01T10:54:45.864Z,33.90
2018-04-01T10:57:48.866Z,33.90
2018-04-01T11:00:53.018Z,33.60
2018-04-01T11:03:55.995Z,33.40
2018-04-01T11:06:58.999Z,34.20
2018-04-01T11:10:01.978Z,34.50
2018-04-01T11:13:04.983Z,33.50
2018-04-01T11:16:07.991Z,34.30
2018-04-01T11:19:11.828Z,34.60
2018-04-01T11:22:15.604Z,35.40
2018-04-01T11:25:18.609Z,34.70
2018-04-01T11:28:21.619Z,34.20
2018-04-01T11:31:24.620Z,34.00
2018-04-01T11:34:27.605Z,33.90
2018-04-01T11:37:30.602Z,33.50
2018-04-01T11:40:33.607Z,33.80
2018-04-01T11:43:36.603Z,33.50
2018-04-01T11:46:39.724Z,33.20
2018-04-01T11:49:42.711Z,33.90
2018-04-01T11:52:45.758Z,34.90
2018-04-01T11:55:48.732Z,33.20
2018-04-01T11:58:52.105Z,33.40
2018-04-01T12:01:55.157Z,32.90
2018-04-01T12:04:58.131Z,32.50
2018-04-01T12:08:01.899Z,32.40
2018-04-01T12:11:04.887Z,32.50
2018-04-01T12:14:07.894Z,31.80
2018-04-01T12:17:10.946Z,31.60
2018-04-01T12:20:13.918Z,31.60
2018-04-01T12:23:16.930Z,31.50
2018-04-01T12:26:20.059Z,32.30
2018-04-01T12:29:23.054Z,31.00
2018-04-01T12:32:26.182Z,31.50
2018-04-01T12:35:29.160Z,31.50
2018-04-01T12:38:32.162Z,30.90
2018-04-01T12:41:35.223Z,31.00
2018-04-01T12:44:39.049Z,30.60
2018-04-01T12:47:42.815Z,30.30
2018-04-01T12:50:45.800Z,30.30
2018-04-01T12:53:48.796Z,30.70
2018-04-01T12:56:51.771Z,30.70
2018-04-01T12:59:55.535Z,30.00
2018-04-01T13:02:58.584Z,30.00
2018-04-01T13:06:02.338Z,29.50
2018-04-01T13:09:05.351Z,29.50
2018-04-01T13:12:08.457Z,28.70
2018-04-01T13:15:12.934Z,28.90
2018-04-01T13:18:15.939Z,28.30
2018-04-01T13:21:18.922Z,28.70
2018-04-01T13:24:21.980Z,29.80
2018-04-01T13:27:24.956Z,29.60
2018-04-01T13:30:27.968Z,29.50
2018-04-01T13:36:39.984Z,29.40
2018-04-01T13:39:42.985Z,29.80
2018-04-01T13:42:45.977Z,29.70
2018-04-01T13:45:48.984Z,29.60
2018-04-01T13:48:51.983Z,29.80
2018-04-01T13:51:55.739Z,30.00
2018-04-01T13:54:58.740Z,29.90
2018-04-01T13:58:01.718Z,30.00
2018-04-01T14:01:05.530Z,30.90
2018-04-01T14:04:09.343Z,31.20
2018-04-01T14:07:12.328Z,31.10
2018-04-01T14:10:15.377Z,32.30
2018-04-01T14:13:19.154Z,31.70
2018-04-01T14:16:22.139Z,32.30
2018-04-01T14:19:25.154Z,32.30
2018-04-01T14:22:28.136Z,32.90
2018-04-01T14:25:31.143Z,32.20
2018-04-01T14:28:34.267Z,32.50
2018-04-01T14:31:37.335Z,32.20
2018-04-01T14:34:40.438Z,32.50
2018-04-01T14:37:44.205Z,33.00
2018-04-01T14:40:47.213Z,33.00
2018-04-01T14:43:50.189Z,31.10
2018-04-01T14:46:53.209Z,30.90
2018-04-01T14:49:56.225Z,30.60
2018-04-01T14:52:59.199Z,31.10
2018-04-01T14:56:02.275Z,30.50
2018-04-01T14:59:05.486Z,29.60
2018-04-01T15:02:08.515Z,31.30
2018-04-01T15:05:11.615Z,31.40
2018-04-01T15:08:15.369Z,31.90
2018-04-01T15:11:18.417Z,31.90
2018-04-01T15:14:21.510Z,31.80
2018-04-01T15:17:24.480Z,30.90
2018-04-01T15:20:27.481Z,30.80
2018-04-01T15:23:30.451Z,30.20
2018-04-01T15:26:34.235Z,29.00
2018-04-01T15:29:37.224Z,29.00
2018-04-01T15:32:40.320Z,30.10
2018-04-01T15:35:43.322Z,29.80
2018-04-01T15:38:46.351Z,29.10
2018-04-01T15:41:49.370Z,29.70
2018-04-01T15:44:52.349Z,30.20
2018-04-01T15:47:55.348Z,30.10
2018-04-01T15:50:58.368Z,30.60
2018-04-01T15:54:01.347Z,31.20
2018-04-01T15:57:04.383Z,30.40
2018-04-01T16:00:07.376Z,30.10
2018-04-01T16:03:10.460Z,30.30
2018-04-01T16:06:14.243Z,29.90
2018-04-01T16:09:17.234Z,29.90
2018-04-01T16:12:20.240Z,29.60
2018-04-01T16:15:23.220Z,29.60
2018-04-01T16:18:26.226Z,29.00
2018-04-01T16:21:29.235Z,29.40
2018-04-01T16:24:32.216Z,29.70
2018-04-01T16:27:35.372Z,30.00
2018-04-01T16:30:38.382Z,29.20
2018-04-01T16:33:41.389Z,29.20
2018-04-01T16:36:44.410Z,29.20
2018-04-01T16:39:47.402Z,29.90
2018-04-01T16:42:50.413Z,29.10
2018-04-01T16:45:53.396Z,29.40
2018-04-01T16:48:56.396Z,30.00
2018-04-01T16:51:59.400Z,31.20
2018-04-01T16:55:02.383Z,33.20
2018-04-01T16:58:05.761Z,33.40
2018-04-01T17:01:08.762Z,33.30
2018-04-01T17:04:11.787Z,34.30
2018-04-01T17:07:14.806Z,34.00
2018-04-01T17:10:17.834Z,34.30
2018-04-01T17:13:20.853Z,34.50
2018-04-01T17:16:23.948Z,35.20
2018-04-01T17:19:26.965Z,35.40
2018-04-01T17:22:30.032Z,35.70
2018-04-01T17:25:33.031Z,35.80
2018-04-01T17:28:36.362Z,36.00
2018-04-01T17:31:39.928Z,36.30
2018-04-01T17:34:43.043Z,36.40
2018-04-01T17:37:46.107Z,36.70
2018-04-01T17:40:49.090Z,36.80
2018-04-01T17:43:52.106Z,37.00
2018-04-01T17:46:55.088Z,37.20
2018-04-01T17:49:58.871Z,37.30
2018-04-01T17:53:01.909Z,37.30
2018-04-01T17:56:04.933Z,37.80
2018-04-01T17:59:07.976Z,37.70
2018-04-01T18:02:10.973Z,37.80
2018-04-01T18:05:14.974Z,37.60
2018-04-01T18:08:17.982Z,37.80
2018-04-01T18:11:20.963Z,37.30
2018-04-01T18:14:24.739Z,37.70
2018-04-01T18:17:27.727Z,37.60
2018-04-01T18:20:30.739Z,37.80
2018-04-01T18:23:33.764Z,37.30
2018-04-01T18:26:36.812Z,37.00
2018-04-01T18:29:40.611Z,36.10
2018-04-01T18:32:43.615Z,36.00
2018-04-01T18:35:46.625Z,36.00
2018-04-01T18:38:49.663Z,35.70
2018-04-01T18:41:53.521Z,33.90
2018-04-01T18:44:56.536Z,33.90
2018-04-01T18:47:59.532Z,33.70
2018-04-01T18:51:02.581Z,33.30
2018-04-01T18:54:06.381Z,32.90
2018-04-01T18:57:09.579Z,32.90
2018-04-01T19:00:12.627Z,32.80
2018-04-01T19:03:16.397Z,33.10
2018-04-01T19:06:19.419Z,32.50
2018-04-01T19:09:22.475Z,32.70
2018-04-01T19:12:25.457Z,32.90
2018-04-01T19:15:28.561Z,33.10
2018-04-01T19:18:32.310Z,33.40
2018-04-01T19:21:36.846Z,33.50
2018-04-01T19:24:41.401Z,33.70
2018-04-01T19:27:45.930Z,33.40
2018-04-01T19:30:50.468Z,32.60
2018-04-01T19:33:54.967Z,32.60
2018-04-01T19:36:58.780Z,32.60
2018-04-01T19:40:02.613Z,32.40
2018-04-01T19:43:07.102Z,33.10
2018-04-01T19:46:11.641Z,33.90
2018-04-01T19:49:16.154Z,33.90
2018-04-01T19:52:20.681Z,34.60
2018-04-01T19:55:24.464Z,33.90
2018-04-01T19:58:28.280Z,33.70
2018-04-01T20:01:32.047Z,33.60
2018-04-01T20:04:35.810Z,33.40
2018-04-01T20:07:40.339Z,33.70
2018-04-01T20:10:44.098Z,33.70
2018-04-01T20:13:47.885Z,33.40
2018-04-01T20:16:51.641Z,33.40
2018-04-01T20:19:55.376Z,32.60
2018-04-01T20:22:59.146Z,32.40
2018-04-01T20:26:02.914Z,32.40
2018-04-01T20:29:06.667Z,32.20
2018-04-01T20:32:10.461Z,32.30
2018-04-01T20:35:14.224Z,32.20
2018-04-01T20:38:17.984Z,32.60
2018-04-01T20:41:22.514Z,32.40
2018-04-01T20:44:26.256Z,32.40
2018-04-01T20:47:30.788Z,32.10
2018-04-01T20:50:35.291Z,32.30
2018-04-01T20:53:39.125Z,32.20
2018-04-01T20:56:42.920Z,32.30
2018-04-01T20:59:46.727Z,32.30
2018-04-01T21:02:50.486Z,32.30
2018-04-01T21:05:54.223Z,32.30
2018-04-01T21:08:57.984Z,32.40
2018-04-01T21:12:01.767Z,32.30
2018-04-01T21:15:05.517Z,32.30
2018-04-01T21:18:10.071Z,32.50
2018-04-01T21:21:14.612Z,32.50
2018-04-01T21:24:19.202Z,32.60
2018-04-01T21:27:22.962Z,32.50
2018-04-01T21:30:27.467Z,32.40
2018-04-01T21:33:31.232Z,32.30
2018-04-01T21:36:35.737Z,32.40
2018-04-01T21:39:39.542Z,32.40
2018-04-01T21:42:43.311Z,32.20
2018-04-01T21:45:47.055Z,32.10
2018-04-01T21:48:51.598Z,32.00
2018-04-01T21:51:55.355Z,32.00
2018-04-01T21:54:59.125Z,31.90
2018-04-01T21:58:03.674Z,31.90
2018-04-01T22:01:08.221Z,32.40
2018-04-01T22:04:12.752Z,32.50
2018-04-01T22:07:17.256Z,32.40
2018-04-01T22:10:21.030Z,32.30
2018-04-01T22:13:25.111Z,32.90
2018-04-01T22:16:28.978Z,32.80
2018-04-01T22:19:33.513Z,32.10
2018-04-01T22:22:55.040Z,32.10
2018-04-01T22:25:58.803Z,32.40
2018-04-01T22:29:02.581Z,32.30
2018-04-01T22:32:06.392Z,32.30
2018-04-01T22:35:11.416Z,32.60
2018-04-01T22:38:15.473Z,31.90
2018-04-01T22:41:19.213Z,31.60
2018-04-01T22:44:22.984Z,31.30
2018-04-01T22:47:26.730Z,31.10
2018-04-01T22:50:30.541Z,31.00
2018-04-01T22:53:34.328Z,30.80
2018-04-01T22:56:38.858Z,30.90
2018-04-01T22:59:42.640Z,30.80
2018-04-01T23:02:46.378Z,30.90
2018-04-01T23:05:50.142Z,30.90
2018-04-01T23:08:54.672Z,30.60
2018-04-01T23:11:58.401Z,30.50
2018-04-01T23:15:02.918Z,30.40
2018-04-01T23:18:06.660Z,30.40
2018-04-01T23:21:10.430Z,30.10
2018-04-01T23:24:14.186Z,30.30
2018-04-01T23:27:17.951Z,30.10
2018-04-01T23:30:21.710Z,30.00
2018-04-01T23:33:25.451Z,29.80
2018-04-01T23:36:29.212Z,29.80
2018-04-01T23:39:33.734Z,29.50
2018-04-01T23:42:37.502Z,29.50
2018-04-01T23:45:41.274Z,29.40
2018-04-01T23:48:45.011Z,29.40
2018-04-01T23:51:49.758Z,29.40
2018-04-01T23:54:54.281Z,29.30
2018-04-01T23:57:58.015Z,29.30
